Time;durP1;ratioP1;P1;durP2;ratioP2;P2;SDS_P1;SDS_P2;PMS_P1;PMS_P2;Temp;Humidity;BMP_temperature;BMP_pressure;BME280_temperature;BME280_humidity;BME280_pressure;Samples;Min_cycle;Max_cycle;Signal;HPM_P1;HPM_P2
2022/03/25 00:02:06;;;;;;;8.25;6.75;;;17.00;58.20;;;;;;10376243;28;20026;-57
2022/03/25 00:07:07;;;;;;;9.70;8.52;;;17.00;58.20;;;;;;10380046;28;20088;-57
2022/03/25 00:12:08;;;;;;;12.52;8.35;;;17.00;57.10;;;;;;10380277;28;20025;-57
2022/03/25 00:17:09;;;;;;;10.65;8.57;;;17.00;57.00;;;;;;10379977;28;20065;-56
2022/03/25 00:22:10;;;;;;;12.63;9.50;;;17.00;57.00;;;;;;10375419;28;20482;-57
2022/03/25 00:27:11;;;;;;;11.82;8.63;;;17.00;57.00;;;;;;10374867;28;20029;-57
2022/03/25 00:32:11;;;;;;;10.48;9.10;;;17.00;57.00;;;;;;10379400;28;20038;-56
2022/03/25 00:37:12;;;;;;;10.40;7.55;;;17.00;57.10;;;;;;10378825;28;20068;-57
2022/03/25 00:42:14;;;;;;;11.32;7.80;;;17.00;57.10;;;;;;10379252;28;20026;-57
2022/03/25 00:47:14;;;;;;;12.27;8.57;;;16.90;57.20;;;;;;10378819;28;20113;-56
2022/03/25 00:52:16;;;;;;;12.82;9.15;;;16.90;57.20;;;;;;10381992;28;20104;-56
2022/03/25 00:57:17;;;;;;;11.18;8.43;;;16.90;56.70;;;;;;10378458;28;20045;-57
2022/03/25 01:02:18;;;;;;;12.00;8.43;;;16.90;56.50;;;;;;10407170;28;20026;-59
2022/03/25 01:07:18;;;;;;;10.32;8.18;;;17.00;56.40;;;;;;10386349;28;20489;-60
2022/03/25 01:12:21;;;;;;;10.70;9.15;;;17.00;56.20;;;;;;10417977;28;20822;-60
2022/03/25 01:17:22;;;;;;;10.88;8.25;;;17.00;56.10;;;;;;10387255;28;20041;-60
2022/03/25 01:22:23;;;;;;;9.88;7.70;;;17.00;56.10;;;;;;10417543;28;20033;-59
2022/03/25 01:27:23;;;;;;;11.85;8.90;;;17.00;56.10;;;;;;10418059;28;20101;-59
2022/03/25 01:32:24;;;;;;;11.27;9.18;;;17.00;56.10;;;;;;10415742;28;20600;-60
2022/03/25 01:37:25;;;;;;;12.55;9.10;;;17.00;56.10;;;;;;10376662;28;20549;-59
2022/03/25 01:42:34;;;;;;;11.50;9.15;;;16.90;56.10;;;;;;10376770;28;20069;-59
2022/03/25 01:47:35;;;;;;;10.30;7.93;;;16.90;56.10;;;;;;10376860;28;20041;-59
2022/03/25 01:52:36;;;;;;;10.70;8.52;;;16.90;56.20;;;;;;10375191;28;20042;-60
2022/03/25 01:57:36;;;;;;;11.60;9.05;;;16.90;56.10;;;;;;10376049;28;20413;-60
2022/03/25 02:02:38;;;;;;;10.98;8.75;;;16.90;56.10;;;;;;10407481;28;20545;-60
2022/03/25 02:07:39;;;;;;;9.57;8.35;;;16.90;56.20;;;;;;10377453;28;20165;-59
2022/03/25 02:12:41;;;;;;;10.68;8.93;;;16.90;55.90;;;;;;10375492;28;20115;-60
2022/03/25 02:17:42;;;;;;;9.70;8.52;;;16.90;56.40;;;;;;10375393;28;20033;-60
2022/03/25 02:22:42;;;;;;;10.25;9.15;;;16.90;55.80;;;;;;10374883;28;20044;-59
2022/03/25 02:27:45;;;;;;;11.85;9.05;;;16.90;55.80;;;;;;10388175;28;20545;-59
2022/03/25 02:32:46;;;;;;;12.95;9.32;;;16.90;55.50;;;;;;10410040;28;20088;-59
2022/03/25 02:37:47;;;;;;;10.60;9.60;;;16.90;55.50;;;;;;10374389;28;20050;-59
2022/03/25 02:42:47;;;;;;;13.23;9.57;;;16.90;55.30;;;;;;10377133;28;20393;-59
2022/03/25 02:47:48;;;;;;;11.82;8.82;;;16.90;55.30;;;;;;10414945;28;20426;-59
2022/03/25 02:52:49;;;;;;;9.85;8.10;;;16.90;55.30;;;;;;10407051;28;20046;-59
2022/03/25 02:57:51;;;;;;;10.13;9.00;;;16.90;55.30;;;;;;10373664;28;20528;-59
2022/03/25 03:02:54;;;;;;;10.25;8.75;;;16.90;55.30;;;;;;10389053;28;20083;-60
2022/03/25 03:07:55;;;;;;;13.45;10.30;;;16.90;55.30;;;;;;10412961;28;20041;-59
2022/03/25 03:12:56;;;;;;;9.95;8.52;;;16.90;55.30;;;;;;10414048;28;20030;-59
2022/03/25 03:17:56;;;;;;;11.07;9.20;;;16.80;55.30;;;;;;10413157;28;20084;-60
2022/03/25 03:22:58;;;;;;;10.90;8.48;;;16.80;55.20;;;;;;10400372;28;20061;-59
2022/03/25 03:27:58;;;;;;;12.30;8.75;;;16.90;54.80;;;;;;10373119;28;20117;-59
2022/03/25 03:33:04;;;;;;;10.57;8.70;;;16.80;54.90;;;;;;10371919;28;20482;-60
2022/03/25 03:38:05;;;;;;;11.73;9.85;;;16.80;54.80;;;;;;10369590;28;20037;-60
2022/03/25 03:43:06;;;;;;;12.82;9.77;;;16.90;54.40;;;;;;10372327;28;20367;-59
2022/03/25 03:48:07;;;;;;;10.63;9.18;;;16.90;54.60;;;;;;10372389;28;20029;-59
2022/03/25 03:53:08;;;;;;;11.32;9.52;;;16.90;54.60;;;;;;10373108;28;20147;-59
2022/03/25 03:58:09;;;;;;;13.68;9.20;;;16.90;54.50;;;;;;10402832;28;20065;-59
2022/03/25 04:03:10;;;;;;;8.93;8.00;;;16.80;54.60;;;;;;10372038;28;20030;-59
2022/03/25 04:08:11;;;;;;;11.23;9.32;;;16.80;54.70;;;;;;10372007;28;20085;-59
2022/03/25 04:13:11;;;;;;;11.60;10.40;;;16.80;54.60;;;;;;10371721;28;20041;-61
2022/03/25 04:18:12;;;;;;;11.73;10.13;;;16.80;54.10;;;;;;10371829;28;20593;-59
2022/03/25 04:23:13;;;;;;;12.82;9.35;;;16.90;54.20;;;;;;10371728;28;20032;-60
2022/03/25 04:28:14;;;;;;;13.73;10.25;;;16.90;54.40;;;;;;10371714;28;20135;-60
2022/03/25 04:33:14;;;;;;;12.02;10.32;;;16.90;53.80;;;;;;10371426;28;20151;-59
2022/03/25 04:38:15;;;;;;;13.43;10.25;;;16.90;53.80;;;;;;10371391;28;20038;-59
2022/03/25 04:43:16;;;;;;;9.68;8.40;;;16.90;54.00;;;;;;10374348;28;20474;-59
2022/03/25 04:48:17;;;;;;;11.30;9.77;;;16.90;54.20;;;;;;10378943;28;20146;-59
2022/03/25 04:53:17;;;;;;;11.90;8.70;;;16.90;54.20;;;;;;10369076;28;20397;-61
2022/03/25 04:58:19;;;;;;;11.20;9.40;;;16.80;54.20;;;;;;10365205;28;20477;-59
2022/03/25 05:03:19;;;;;;;11.82;10.07;;;16.80;53.60;;;;;;10396505;28;20021;-59
2022/03/25 05:08:21;;;;;;;13.10;11.02;;;16.90;53.50;;;;;;10402361;28;20100;-60
2022/03/25 05:13:21;;;;;;;11.65;10.00;;;16.90;53.40;;;;;;10398339;28;20401;-59
2022/03/25 05:18:23;;;;;;;12.23;10.65;;;16.90;53.30;;;;;;10414845;28;20072;-59
2022/03/25 05:23:23;;;;;;;13.85;11.32;;;16.90;53.20;;;;;;10389866;28;20022;-60
2022/03/25 05:28:25;;;;;;;12.40;11.10;;;17.00;53.10;;;;;;10386554;28;20494;-61
2022/03/25 05:33:26;;;;;;;13.82;10.55;;;16.90;53.20;;;;;;10376182;28;20038;-61
2022/03/25 05:38:27;;;;;;;12.48;11.10;;;16.90;53.30;;;;;;10376867;28;20549;-60
2022/03/25 05:43:28;;;;;;;13.23;10.38;;;16.90;53.20;;;;;;10376861;28;20117;-60
2022/03/25 05:48:29;;;;;;;13.77;11.35;;;16.90;52.90;;;;;;10376727;28;20087;-60
2022/03/25 05:53:30;;;;;;;18.77;12.57;;;17.00;52.90;;;;;;10379211;28;20033;-59
2022/03/25 05:58:34;;;;;;;16.88;11.50;;;16.90;54.60;;;;;;10377346;28;20206;-59
2022/03/25 06:03:35;;;;;;;22.75;13.77;;;17.20;53.60;;;;;;10409113;28;20037;-57
2022/03/25 06:08:36;;;;;;;24.58;13.98;;;17.20;54.10;;;;;;10400492;28;20479;-58
2022/03/25 06:13:37;;;;;;;21.38;14.85;;;17.30;55.50;;;;;;10381820;28;20064;-58
2022/03/25 06:18:37;;;;;;;25.05;13.20;;;17.40;55.00;;;;;;10383510;28;20073;-57
2022/03/25 06:23:38;;;;;;;25.00;13.45;;;17.30;55.90;;;;;;10383002;28;20118;-59
2022/03/25 06:28:39;;;;;;;24.42;14.05;;;17.20;56.70;;;;;;10374541;28;20061;-60
2022/03/25 06:33:41;;;;;;;23.00;15.10;;;17.20;57.20;;;;;;10388495;28;20478;-59
2022/03/25 06:38:42;;;;;;;29.65;15.73;;;17.00;56.70;;;;;;10386195;28;20037;-58
2022/03/25 06:43:42;;;;;;;24.88;15.93;;;17.00;56.30;;;;;;10373800;28;20482;-59
2022/03/25 06:48:44;;;;;;;31.05;15.00;;;16.80;56.30;;;;;;10373052;28;20116;-59
2022/03/25 06:53:45;;;;;;;29.77;18.15;;;16.80;56.20;;;;;;10368323;28;20030;-60
2022/03/25 06:58:46;;;;;;;37.38;18.83;;;16.80;56.20;;;;;;10396359;28;20154;-61
2022/03/25 07:03:47;;;;;;;36.22;18.23;;;16.80;56.30;;;;;;10407431;28;20033;-62
2022/03/25 07:08:51;;;;;;;36.78;19.83;;;16.90;56.40;;;;;;10360951;28;20121;-57
2022/03/25 07:13:52;;;;;;;29.85;17.55;;;16.90;56.60;;;;;;10343244;28;20034;-60
2022/03/25 07:18:55;;;;;;;33.80;20.35;;;16.90;56.20;;;;;;10393364;28;20029;-58
2022/03/25 07:23:55;;;;;;;33.33;18.48;;;16.80;56.20;;;;;;10385457;28;20030;-60
2022/03/25 07:28:56;;;;;;;28.98;18.40;;;16.80;56.10;;;;;;10388648;28;20165;-59
2022/03/25 07:33:58;;;;;;;34.92;18.73;;;16.80;56.20;;;;;;10381544;28;20042;-58
2022/03/25 07:38:59;;;;;;;39.15;19.75;;;16.70;56.60;;;;;;10368034;28;20038;-58
2022/03/25 07:44:00;;;;;;;38.72;19.08;;;16.70;57.10;;;;;;10400491;28;20025;-57
2022/03/25 07:49:00;;;;;;;41.47;18.85;;;16.80;57.40;;;;;;10376179;28;20401;-59
2022/03/25 07:54:01;;;;;;;34.20;16.85;;;16.80;57.40;;;;;;10382754;28;20062;-57
2022/03/25 07:59:03;;;;;;;31.38;16.50;;;16.80;57.60;;;;;;10371804;28;20037;-58
2022/03/25 08:04:04;;;;;;;29.42;19.30;;;16.80;57.60;;;;;;10373525;28;20072;-58
2022/03/25 08:09:05;;;;;;;28.10;16.63;;;16.80;58.30;;;;;;10379794;28;20050;-58
2022/03/25 08:14:06;;;;;;;35.35;17.02;;;16.80;58.20;;;;;;10400248;28;20044;-58
2022/03/25 08:19:07;;;;;;;29.00;16.52;;;16.80;58.40;;;;;;10384274;28;20030;-58
2022/03/25 08:29:27;;;;;;;31.20;16.63;;;16.80;58.20;;;;;;10389608;28;20037;-59
2022/03/25 08:34:28;;;;;;;30.73;16.67;;;16.80;58.30;;;;;;10392215;28;20033;-59
2022/03/25 08:39:28;;;;;;;37.75;16.70;;;16.80;58.50;;;;;;10419116;28;20057;-59
2022/03/25 08:44:29;;;;;;;33.53;15.75;;;16.90;59.00;;;;;;10397857;28;20038;-58
2022/03/25 08:49:32;;;;;;;24.85;15.32;;;16.90;59.10;;;;;;10393092;28;20057;-58
2022/03/25 08:54:33;;;;;;;36.60;16.45;;;16.90;59.20;;;;;;10384524;28;20725;-62
2022/03/25 08:59:33;;;;;;;30.45;16.55;;;16.90;58.80;;;;;;10378746;28;20161;-58
2022/03/25 09:04:34;;;;;;;31.70;14.88;;;17.00;58.90;;;;;;10393848;28;20030;-58
2022/03/25 09:09:36;;;;;;;31.48;15.73;;;17.00;58.80;;;;;;10377431;28;20056;-58
2022/03/25 09:14:37;;;;;;;28.10;13.82;;;16.90;58.60;;;;;;10388117;28;20033;-57
2022/03/25 09:19:37;;;;;;;20.85;14.95;;;16.90;58.60;;;;;;10385814;28;20038;-58
2022/03/25 09:24:38;;;;;;;26.02;14.63;;;16.90;58.50;;;;;;10381527;28;20616;-58
2022/03/25 09:29:39;;;;;;;21.77;13.73;;;17.00;58.50;;;;;;10381880;28;20398;-58
2022/03/25 09:40:05;;;;;;;21.90;12.05;;;17.00;58.20;;;;;;10376522;28;20096;-58
2022/03/25 09:45:08;;;;;;;22.63;13.95;;;17.00;58.10;;;;;;10376380;28;20036;-58
2022/03/25 09:50:21;;;;;;;17.98;12.93;;;17.00;58.00;;;;;;10382947;28;20058;-57
2022/03/25 09:55:22;;;;;;;15.05;11.48;;;17.00;57.90;;;;;;10373257;28;20033;-58
2022/03/25 10:00:22;;;;;;;18.73;12.77;;;17.10;57.90;;;;;;10357501;28;20528;-57
2022/03/25 10:05:23;;;;;;;21.92;12.15;;;17.10;57.80;;;;;;10368058;28;20046;-57
2022/03/25 10:10:29;;;;;;;17.50;11.57;;;17.10;57.70;;;;;;10398021;28;20037;-57
2022/03/25 10:15:32;;;;;;;21.55;13.55;;;17.10;57.50;;;;;;10416345;28;20034;-58
2022/03/25 10:20:40;;;;;;;19.10;12.48;;;17.10;57.00;;;;;;10374672;28;20030;-57
2022/03/25 10:26:00;;;;;;;22.33;13.20;;;17.10;56.80;;;;;;10410393;28;20029;-57
2022/03/25 10:31:04;;;;;;;20.02;14.18;;;17.20;56.40;;;;;;10414513;28;20112;-57
2022/03/25 10:36:10;;;;;;;17.13;13.57;;;17.20;56.20;;;;;;10378115;28;20033;-57
2022/03/25 10:41:16;;;;;;;17.67;12.48;;;17.10;56.00;;;;;;10384206;28;20125;-57
2022/03/25 10:46:40;;;;;;;25.67;15.27;;;17.20;56.70;;;;;;10414761;28;20029;-58
2022/03/25 10:51:44;;;;;;;20.73;14.20;;;17.20;55.80;;;;;;10414001;28;20033;-56
2022/03/25 10:56:58;;;;;;;21.20;13.52;;;17.20;55.50;;;;;;10383603;28;20112;-56
2022/03/25 11:02:05;;;;;;;16.65;13.10;;;17.30;55.70;;;;;;10373994;28;20033;-57
2022/03/25 11:07:10;;;;;;;16.55;12.80;;;17.20;55.80;;;;;;10379729;28;20049;-56
2022/03/25 11:12:11;;;;;;;17.55;14.77;;;17.30;55.70;;;;;;10411021;28;20033;-56
2022/03/25 11:17:13;;;;;;;17.48;12.13;;;17.30;55.80;;;;;;10393059;28;20390;-58
2022/03/25 11:22:17;;;;;;;17.38;12.25;;;17.30;55.80;;;;;;10373401;28;20026;-57
2022/03/25 11:27:28;;;;;;;18.75;15.13;;;17.40;55.60;;;;;;10368536;28;20393;-57
2022/03/25 11:32:29;;;;;;;16.40;12.80;;;17.40;55.40;;;;;;10365980;28;20037;-57
2022/03/25 11:37:34;;;;;;;17.83;13.32;;;17.40;55.20;;;;;;10380902;28;20046;-57
2022/03/25 11:42:49;;;;;;;21.40;15.63;;;17.40;55.30;;;;;;10372282;28;20044;-56
2022/03/25 11:48:04;;;;;;;18.40;13.75;;;17.50;55.10;;;;;;10406661;28;20032;-58
2022/03/25 11:53:11;;;;;;;19.75;14.48;;;17.50;54.90;;;;;;10401870;28;20474;-58
2022/03/25 11:58:14;;;;;;;16.02;13.80;;;17.50;54.80;;;;;;10390528;28;20030;-58
2022/03/25 12:03:16;;;;;;;19.17;13.82;;;17.60;54.70;;;;;;10371774;28;20105;-59
2022/03/25 12:08:25;;;;;;;20.95;13.95;;;17.60;54.90;;;;;;10387611;28;20057;-58
2022/03/25 12:13:50;;;;;;;19.48;13.50;;;17.60;54.70;;;;;;10386478;28;20489;-59
2022/03/25 12:18:51;;;;;;;16.20;12.23;;;17.60;55.00;;;;;;10405103;28;20042;-57
2022/03/25 12:24:02;;;;;;;16.13;13.32;;;17.60;55.00;;;;;;10380575;28;20107;-58
2022/03/25 12:29:06;;;;;;;13.02;11.13;;;17.60;55.00;;;;;;10376386;28;20025;-56
2022/03/25 12:34:06;;;;;;;18.83;13.13;;;17.60;55.20;;;;;;10366977;28;20030;-57
2022/03/25 12:39:14;;;;;;;13.88;11.57;;;17.60;54.80;;;;;;10388815;28;20128;-57
2022/03/25 12:44:24;;;;;;;14.90;11.23;;;17.60;55.10;;;;;;10412060;28;20022;-57
2022/03/25 12:49:25;;;;;;;15.52;11.43;;;17.60;55.10;;;;;;10376861;28;20040;-57
2022/03/25 12:54:34;;;;;;;15.00;12.38;;;17.60;55.00;;;;;;10375723;28;20033;-57
2022/03/25 12:59:36;;;;;;;;;;;17.60;55.00;;;;;;10379885;28;20628;-57
2022/03/25 13:04:37;;;;;;;14.20;11.93;;;17.60;55.00;;;;;;10382297;28;20004;-57
2022/03/25 13:09:55;;;;;;;16.17;10.80;;;17.60;55.50;;;;;;10416929;28;20180;-57
2022/03/25 13:14:56;;;;;;;13.85;10.95;;;17.70;55.30;;;;;;10362277;28;20527;-57
2022/03/25 13:19:57;;;;;;;32.13;11.90;;;17.60;55.30;;;;;;10368109;28;20466;-56
2022/03/25 13:24:59;;;;;;;25.67;12.68;;;17.60;55.70;;;;;;10389852;28;20061;-57
2022/03/25 13:30:04;;;;;;;28.33;12.45;;;17.50;56.40;;;;;;10413038;28;20033;-56
2022/03/25 13:35:12;;;;;;;20.90;10.50;;;17.60;56.50;;;;;;10394345;28;20036;-58
2022/03/25 13:40:27;;;;;;;29.75;12.15;;;17.60;56.60;;;;;;10376667;28;20457;-58
2022/03/25 13:45:28;;;;;;;36.35;13.38;;;17.60;56.80;;;;;;10404208;28;20033;-57
2022/03/25 13:50:29;;;;;;;34.20;13.40;;;17.50;57.50;;;;;;10416326;28;20018;-57
2022/03/25 13:55:34;;;;;;;31.98;14.20;;;17.60;57.60;;;;;;10380054;28;20021;-58
2022/03/25 14:00:38;;;;;;;44.30;15.80;;;17.60;57.80;;;;;;10390448;28;20042;-57
2022/03/25 14:05:39;;;;;;;43.80;13.13;;;17.70;57.90;;;;;;10371649;28;20070;-58
2022/03/25 14:10:54;;;;;;;36.38;14.00;;;17.70;57.50;;;;;;10375133;28;20054;-57
2022/03/25 14:16:16;;;;;;;34.83;13.30;;;17.60;57.30;;;;;;10374414;28;20034;-57
2022/03/25 14:21:33;;;;;;;29.67;12.43;;;17.60;57.40;;;;;;10375506;28;20034;-57
2022/03/25 14:26:33;;;;;;;31.35;12.27;;;17.60;57.20;;;;;;10374757;28;20428;-57
2022/03/25 14:31:41;;;;;;;29.52;12.23;;;17.60;57.30;;;;;;10370236;28;20111;-57
2022/03/25 14:36:42;;;;;;;28.17;10.98;;;17.60;57.30;;;;;;10374463;28;20105;-57
2022/03/25 14:41:44;;;;;;;28.17;11.20;;;17.60;57.10;;;;;;10370280;28;20437;-57
2022/03/25 14:46:47;;;;;;;24.55;11.35;;;17.60;57.00;;;;;;10373030;28;20106;-56
2022/03/25 14:51:47;;;;;;;22.63;11.48;;;17.60;57.00;;;;;;10373875;28;20091;-57
2022/03/25 14:56:48;;;;;;;25.23;9.98;;;17.60;57.00;;;;;;10376271;28;20108;-57
2022/03/25 15:01:50;;;;;;;19.13;10.00;;;17.60;56.90;;;;;;10385692;28;20040;-57
2022/03/25 15:06:51;;;;;;;21.00;9.93;;;17.60;56.90;;;;;;10381232;28;20041;-57
2022/03/25 15:11:52;;;;;;;24.10;9.48;;;17.60;56.90;;;;;;10373119;28;20038;-58
2022/03/25 15:16:53;;;;;;;17.98;9.00;;;17.70;56.90;;;;;;10368854;28;20022;-57
2022/03/25 15:21:54;;;;;;;12.30;8.27;;;17.60;56.70;;;;;;10372604;28;20067;-57
2022/03/25 15:26:55;;;;;;;13.45;8.00;;;17.60;56.70;;;;;;10375296;28;20084;-57
2022/03/25 15:37:15;;;;;;;17.10;8.80;;;17.70;56.60;;;;;;10384970;28;20046;-58
2022/03/25 15:42:16;;;;;;;14.25;7.93;;;17.70;56.50;;;;;;10374819;28;20030;-57
2022/03/25 15:47:17;;;;;;;10.45;7.28;;;17.70;56.50;;;;;;10384562;28;20038;-58
2022/03/25 15:52:17;;;;;;;23.40;9.35;;;17.60;56.50;;;;;;10392164;28;20104;-57
2022/03/25 15:57:19;;;;;;;19.23;6.72;;;17.60;56.70;;;;;;10368860;28;20033;-58
2022/03/25 16:02:20;;;;;;;25.95;7.95;;;17.70;57.40;;;;;;10391294;28;20422;-56
2022/03/25 16:07:20;;;;;;;23.63;8.73;;;17.70;57.70;;;;;;10389474;28;20046;-57
2022/03/25 16:12:21;;;;;;;31.70;9.73;;;17.80;58.10;;;;;;10391748;28;20056;-57
2022/03/25 16:17:22;;;;;;;27.02;8.27;;;17.80;58.90;;;;;;10390824;28;20390;-57
2022/03/25 16:22:23;;;;;;;22.42;8.70;;;17.80;58.60;;;;;;10370902;28;20022;-57
2022/03/25 16:27:25;;;;;;;52.42;11.35;;;17.80;58.80;;;;;;10382995;28;20561;-57
2022/03/25 16:32:25;;;;;;;39.35;10.13;;;17.80;58.60;;;;;;10371267;28;20045;-57
2022/03/25 16:37:26;;;;;;;50.50;11.73;;;17.70;58.70;;;;;;10400303;28;20378;-57
2022/03/25 16:42:27;;;;;;;38.65;12.52;;;17.70;58.90;;;;;;10378710;28;20108;-58
2022/03/25 16:47:28;;;;;;;49.03;12.90;;;17.70;58.80;;;;;;10378777;28;20083;-58
2022/03/25 16:52:28;;;;;;;37.47;13.25;;;17.70;58.10;;;;;;10380561;28;20116;-56
2022/03/25 16:57:29;;;;;;;44.78;13.57;;;17.70;57.50;;;;;;10381367;28;20030;-58
2022/03/25 17:02:30;;;;;;;42.15;12.88;;;17.70;57.30;;;;;;10389925;28;20104;-58
2022/03/25 17:07:30;;;;;;;24.92;10.85;;;17.70;57.20;;;;;;10370861;28;20073;-58
2022/03/25 17:12:32;;;;;;;30.70;12.98;;;17.80;57.00;;;;;;10357549;28;20045;-58
2022/03/25 17:17:33;;;;;;;36.72;12.73;;;17.90;59.10;;;;;;10399164;28;20117;-57
2022/03/25 17:22:35;;;;;;;33.38;10.85;;;18.10;60.10;;;;;;10393697;28;20052;-56
2022/03/25 17:27:36;;;;;;;39.20;13.63;;;18.10;60.60;;;;;;10377338;28;20030;-57
2022/03/25 17:32:36;;;;;;;42.75;14.32;;;18.10;60.70;;;;;;10377321;28;20591;-55
2022/03/25 17:37:37;;;;;;;39.47;12.68;;;18.10;60.40;;;;;;10383378;28;20060;-56
2022/03/25 17:42:38;;;;;;;36.45;11.77;;;18.00;60.90;;;;;;10391346;28;20032;-56
2022/03/25 17:47:38;;;;;;;27.58;10.98;;;17.80;60.60;;;;;;10391822;28;20030;-56
2022/03/25 17:52:41;;;;;;;20.80;10.02;;;17.80;60.50;;;;;;10382061;28;20041;-57
2022/03/25 17:57:42;;;;;;;22.30;8.80;;;17.70;58.80;;;;;;10383366;28;20033;-56
2022/03/25 18:02:43;;;;;;;20.92;11.20;;;17.60;58.90;;;;;;10376991;28;20467;-56
2022/03/25 18:07:44;;;;;;;23.88;9.50;;;17.60;58.90;;;;;;10390191;28;20065;-57
2022/03/25 18:12:45;;;;;;;17.20;9.07;;;17.50;58.80;;;;;;10408200;28;20488;-57
2022/03/25 18:17:46;;;;;;;13.88;9.73;;;17.50;58.80;;;;;;10415368;28;20109;-57
2022/03/25 18:22:46;;;;;;;20.80;10.43;;;17.50;58.70;;;;;;10375426;28;20121;-57
2022/03/25 18:27:47;;;;;;;21.45;8.55;;;17.50;59.10;;;;;;10375222;28;20044;-58
2022/03/25 18:32:51;;;;;;;14.35;8.48;;;17.50;59.50;;;;;;10375106;28;20117;-58
2022/03/25 18:37:54;;;;;;;21.30;8.85;;;17.50;58.90;;;;;;10378555;28;20367;-58
2022/03/25 18:42:54;;;;;;;13.57;8.13;;;17.50;60.00;;;;;;10414448;28;20040;-57
2022/03/25 18:47:56;;;;;;;16.15;8.32;;;17.40;58.50;;;;;;10414091;28;20068;-59
2022/03/25 18:52:56;;;;;;;12.75;7.63;;;17.50;58.60;;;;;;10405531;28;20077;-60
2022/03/25 18:57:57;;;;;;;20.13;8.45;;;17.40;58.50;;;;;;10377147;28;20566;-59
2022/03/25 19:02:58;;;;;;;23.60;8.35;;;17.40;58.50;;;;;;10378037;28;20041;-58
2022/03/25 19:07:59;;;;;;;13.68;6.90;;;17.40;58.90;;;;;;10387278;28;20060;-58
2022/03/25 19:12:59;;;;;;;25.85;7.68;;;17.40;58.80;;;;;;10387194;28;20411;-59
2022/03/25 19:18:00;;;;;;;20.48;8.10;;;17.40;58.70;;;;;;10392641;28;20042;-58
2022/03/25 19:23:02;;;;;;;17.42;7.95;;;17.40;58.60;;;;;;10396165;28;20366;-59
2022/03/25 19:28:04;;;;;;;13.32;8.23;;;17.40;58.50;;;;;;10403491;28;20040;-59
2022/03/25 19:33:06;;;;;;;14.82;7.22;;;17.40;58.70;;;;;;10394049;28;20104;-58
2022/03/25 19:38:07;;;;;;;12.98;7.00;;;17.40;58.50;;;;;;10397937;28;20029;-58
2022/03/25 19:43:07;;;;;;;17.85;8.63;;;17.40;58.50;;;;;;10383006;28;20066;-60
2022/03/25 19:48:08;;;;;;;12.90;6.70;;;17.50;58.60;;;;;;10381085;28;20105;-59
2022/03/25 19:53:09;;;;;;;11.98;7.07;;;17.50;58.80;;;;;;10393525;28;20497;-59
2022/03/25 19:58:10;;;;;;;12.85;7.53;;;17.50;58.60;;;;;;10357698;28;20112;-59
2022/03/25 20:03:11;;;;;;;12.95;7.10;;;17.50;58.60;;;;;;10383743;28;20029;-58
2022/03/25 20:08:12;;;;;;;21.25;7.03;;;17.50;58.70;;;;;;10387969;28;20046;-59
2022/03/25 20:13:14;;;;;;;11.75;5.93;;;17.40;58.70;;;;;;10412431;28;20370;-59
2022/03/25 20:18:14;;;;;;;14.23;7.10;;;17.50;58.80;;;;;;10389352;28;20573;-59
2022/03/25 20:23:15;;;;;;;12.52;6.50;;;17.50;58.70;;;;;;10364969;28;20958;-59
2022/03/25 20:28:16;;;;;;;9.75;6.32;;;17.50;58.70;;;;;;10393914;28;20041;-59
2022/03/25 20:33:17;;;;;;;11.07;6.60;;;17.50;58.70;;;;;;10409999;28;20076;-59
2022/03/25 20:38:17;;;;;;;10.68;5.93;;;17.40;58.60;;;;;;10384749;28;20026;-58
2022/03/25 20:43:18;;;;;;;11.05;6.70;;;17.50;58.80;;;;;;10364650;28;20065;-59
2022/03/25 20:48:19;;;;;;;12.68;7.30;;;17.50;58.70;;;;;;10388879;28;20053;-58
2022/03/25 20:53:20;;;;;;;9.32;6.10;;;17.50;58.70;;;;;;10378788;28;20040;-58
2022/03/25 20:58:21;;;;;;;10.07;5.93;;;17.50;58.70;;;;;;10395226;28;20128;-58
2022/03/25 21:03:22;;;;;;;11.55;6.20;;;17.40;58.90;;;;;;10403246;28;20075;-58
2022/03/25 21:08:26;;;;;;;10.57;6.55;;;17.40;58.70;;;;;;10386892;28;20125;-58
2022/03/25 21:13:27;;;;;;;11.93;5.95;;;17.40;58.60;;;;;;10376255;28;20034;-59
2022/03/25 21:18:28;;;;;;;11.95;6.10;;;17.40;58.60;;;;;;10376131;28;20474;-59
2022/03/25 21:23:29;;;;;;;10.35;6.07;;;17.30;58.50;;;;;;10377040;28;20065;-58
2022/03/25 21:28:30;;;;;;;9.73;6.35;;;17.30;59.00;;;;;;10376150;28;20036;-59
2022/03/25 21:33:31;;;;;;;8.18;5.38;;;17.30;58.40;;;;;;10376960;28;20497;-58
2022/03/25 21:38:32;;;;;;;8.75;6.10;;;17.30;58.40;;;;;;10376600;28;20117;-58
2022/03/25 21:43:33;;;;;;;9.38;6.20;;;17.30;58.40;;;;;;10376336;28;20029;-58
2022/03/25 21:48:34;;;;;;;8.23;4.80;;;17.30;58.40;;;;;;10372025;28;20042;-59
2022/03/25 21:53:34;;;;;;;10.95;6.82;;;17.30;58.30;;;;;;10383165;28;20045;-58
2022/03/25 21:58:35;;;;;;;11.30;6.32;;;17.30;58.20;;;;;;10376420;28;20695;-58
2022/03/25 22:03:36;;;;;;;7.68;5.10;;;17.20;58.20;;;;;;10398368;28;20064;-58
2022/03/25 22:08:36;;;;;;;6.78;4.55;;;17.20;58.10;;;;;;10416638;28;20081;-58
2022/03/25 22:13:37;;;;;;;12.35;5.50;;;17.20;58.20;;;;;;10399631;28;20355;-58
2022/03/25 22:18:38;;;;;;;7.97;4.93;;;17.20;58.20;;;;;;10375120;28;20451;-59
2022/03/25 22:23:38;;;;;;;7.00;5.43;;;17.20;58.20;;;;;;10375573;28;20057;-59
2022/03/25 22:28:39;;;;;;;7.80;5.10;;;17.20;58.00;;;;;;10404983;28;20047;-58
2022/03/25 22:33:40;;;;;;;7.07;4.85;;;17.20;57.90;;;;;;10392373;28;20030;-59
2022/03/25 22:38:41;;;;;;;9.25;4.43;;;17.20;57.90;;;;;;10403533;28;20124;-58
2022/03/25 22:43:42;;;;;;;7.22;5.20;;;17.20;58.10;;;;;;10378591;28;20474;-59
2022/03/25 22:48:42;;;;;;;8.25;4.88;;;17.20;58.10;;;;;;10373984;28;20118;-58
2022/03/25 22:53:43;;;;;;;5.57;4.20;;;17.20;58.00;;;;;;10376314;28;20033;-58
2022/03/25 22:58:44;;;;;;;8.00;4.93;;;17.20;57.80;;;;;;10373817;28;20109;-58
2022/03/25 23:03:45;;;;;;;8.05;4.93;;;17.20;57.60;;;;;;10413488;28;20024;-58
2022/03/25 23:08:46;;;;;;;9.38;5.60;;;17.20;57.60;;;;;;10389540;28;20053;-59
2022/03/25 23:13:47;;;;;;;8.15;5.82;;;17.10;57.50;;;;;;10383228;28;20033;-59
2022/03/25 23:18:50;;;;;;;7.18;4.28;;;17.10;57.50;;;;;;10413240;28;20041;-59
2022/03/25 23:23:52;;;;;;;7.07;5.13;;;17.10;57.50;;;;;;10378833;28;20030;-59
2022/03/25 23:28:53;;;;;;;7.07;4.95;;;17.10;57.50;;;;;;10372903;28;20037;-58
2022/03/25 23:33:54;;;;;;;7.60;5.20;;;17.10;57.40;;;;;;10372604;28;20207;-59
2022/03/25 23:38:55;;;;;;;7.50;4.72;;;17.10;57.80;;;;;;10372480;28;20040;-59
2022/03/25 23:43:55;;;;;;;5.82;4.70;;;17.10;57.80;;;;;;10372839;28;20100;-58
2022/03/25 23:48:56;;;;;;;9.50;6.10;;;17.10;57.90;;;;;;10383169;28;20047;-58
2022/03/25 23:53:57;;;;;;;7.05;4.80;;;17.10;57.70;;;;;;10395883;28;20034;-60
2022/03/25 23:58:57;;;;;;;8.40;5.50;;;17.10;57.80;;;;;;10374196;28;20034;-59
